Terminal Aerodrome Forecast
Issued by NWS

Home | Current Version | Previous Version | Text Only | Print | Product List | Glossary Off
Versions: 1 2 3 4 5 6 7 8 9 10 11 12 13 14 15 16 17 18 19 20 21 22 23 24 25 26 27 28 29 30 31 32 33

000
FTUS43 KLOT 251500 AAB
TAFGYY
TAF AMD
KGYY 251542Z 2516/2612 27010KT P6SM FEW007
     FM252000 30015G24KT P6SM FEW100
     FM252300 29012KT P6SM FEW250
     FM260700 32011KT P6SM SKC=

USA.gov is the U.S. government's official web portal to all federal, state and local government web resources and services.